Baytown, Minnesota
Current Conditions -  °F | °C
As of 6:51 AM on Thursday 27 Nov 2014 (Local Time) from K21D Reporting Station
Clear Clear  
Wind Chill:   Ceiling: Unl
Heat Index:   Visibility: 10mi
Dew Point: -6°   Wind: 3mph
Humidity: 78%   Direction: 340°NNW
Pressure: 30.48"   Gusts: NA
Location:  45.0174°N, 92.7808°W
Report Text: K21D 271251Z AUTO 34003KT 10SM CLR M18/M21 A3048 RMK AO2
Loading
Personal Weather Stations






























Interactive Weather Map New forecast layout! Learn more

10-Day Weather Forecast

Advertisements
Track Severe Weather on mobile